createdAt,value
2022-08-25T00:00:23.207Z,98588.03
2022-08-25T00:01:31.776Z,98592.25
2022-08-25T00:02:34.302Z,98593.28
2022-08-25T00:03:39.602Z,98585.69
2022-08-25T00:04:43.448Z,98586.81
2022-08-25T00:05:46.130Z,98584.97
2022-08-25T00:06:49.160Z,98581.88
2022-08-25T00:07:50.643Z,98583.81
2022-08-25T00:08:52.581Z,98576.19
2022-08-25T00:09:54.034Z,98572.75
2022-08-25T00:11:03.127Z,98575.78
2022-08-25T00:12:06.400Z,98575.81
2022-08-25T00:13:08.863Z,98578.16
2022-08-25T00:14:14.982Z,98576.78
2022-08-25T00:15:16.518Z,98574.78
2022-08-25T00:16:20.447Z,98572.50
2022-08-25T00:17:22.069Z,98572.16
2022-08-25T00:18:24.031Z,98576.31
2022-08-25T00:19:29.774Z,98574.13
2022-08-25T00:20:32.324Z,98579.13
2022-08-25T00:21:33.867Z,98572.69
2022-08-25T00:22:35.718Z,98576.91
2022-08-25T00:23:37.670Z,98577.28
2022-08-25T00:24:39.437Z,98576.47
2022-08-25T00:25:41.313Z,98571.41
2022-08-25T00:26:45.479Z,98568.81
2022-08-25T00:27:48.145Z,98565.75
2022-08-25T00:28:50.217Z,98571.94
2022-08-25T00:29:55.630Z,98571.59
2022-08-25T00:30:58.879Z,98569.97
2022-08-25T00:32:01.077Z,98574.94
2022-08-25T00:33:04.989Z,98569.59
2022-08-25T00:34:09.976Z,98563.88
2022-08-25T00:35:12.135Z,98563.16
2022-08-25T00:36:14.820Z,98573.47
2022-08-25T00:37:16.404Z,98569.69
2022-08-25T00:38:17.893Z,98572.44
2022-08-25T00:39:21.323Z,98569.59
2022-08-25T00:40:26.259Z,98568.16
2022-08-25T00:41:28.093Z,98566.75
2022-08-25T00:42:30.426Z,98567.50
2022-08-25T00:43:40.705Z,98562.38
2022-08-25T00:44:44.021Z,98561.66
2022-08-25T00:45:46.086Z,98567.16
2022-08-25T00:46:51.352Z,98571.78
2022-08-25T00:47:53.680Z,98562.19
2022-08-25T00:49:02.223Z,98572.88
2022-08-25T00:50:06.306Z,98575.81
2022-08-25T00:51:14.161Z,98571.03
2022-08-25T00:52:29.564Z,98568.34
2022-08-25T00:53:31.319Z,98566.84
2022-08-25T00:54:45.705Z,98567.31
2022-08-25T00:55:47.709Z,98562.41
2022-08-25T00:56:51.750Z,98566.56
2022-08-25T00:57:58.538Z,98566.56
2022-08-25T00:59:01.977Z,98564.63
2022-08-25T01:00:21.574Z,98565.16
2022-08-25T01:01:23.139Z,98567.06
2022-08-25T01:02:25.049Z,98571.22
2022-08-25T01:03:33.141Z,98568.84
2022-08-25T01:04:34.999Z,98573.91
2022-08-25T01:05:37.625Z,98570.69
2022-08-25T01:06:44.467Z,98570.31
2022-08-25T01:07:46.758Z,98569.41
2022-08-25T01:08:48.362Z,98574.44
2022-08-25T01:09:52.537Z,98568.28
2022-08-25T01:10:57.364Z,98570.31
2022-08-25T01:11:59.972Z,98571.13
2022-08-25T01:13:26.878Z,98566.22
2022-08-25T01:14:31.546Z,98562.78
2022-08-25T01:15:34.660Z,98566.13
2022-08-25T01:16:40.932Z,98562.38
2022-08-25T01:17:49.526Z,98555.91
2022-08-25T01:18:56.397Z,98558.81
2022-08-25T01:19:57.913Z,98554.84
2022-08-25T01:21:00.079Z,98555.66
2022-08-25T01:22:01.816Z,98562.63
2022-08-25T01:23:04.069Z,98558.03
2022-08-25T01:24:06.760Z,98561.16
2022-08-25T01:25:23.402Z,98559.63
2022-08-25T01:26:30.680Z,98559.63
2022-08-25T01:27:32.565Z,98561.59
2022-08-25T01:28:35.938Z,98562.69
2022-08-25T01:29:38.496Z,98556.25
2022-08-25T01:30:41.072Z,98555.09
2022-08-25T01:31:42.706Z,98559.19
2022-08-25T01:32:44.228Z,98551.19
2022-08-25T01:33:46.130Z,98555.22
2022-08-25T01:34:47.592Z,98556.25
2022-08-25T01:35:50.192Z,98555.97
2022-08-25T01:36:52.723Z,98549.81
2022-08-25T01:37:54.155Z,98559.84
2022-08-25T01:38:56.528Z,98551.03
2022-08-25T01:39:58.040Z,98553.06
2022-08-25T01:40:59.567Z,98546.25
2022-08-25T01:42:09.410Z,98552.38
2022-08-25T01:43:11.343Z,98549.72
2022-08-25T01:44:16.104Z,98544.38
2022-08-25T01:45:18.807Z,98547.06
2022-08-25T01:46:20.464Z,98540.25
2022-08-25T01:47:22.114Z,98543.75
2022-08-25T01:48:24.083Z,98543.78
2022-08-25T01:49:25.604Z,98546.44
2022-08-25T01:50:27.865Z,98550.66
2022-08-25T01:51:34.116Z,98540.00
2022-08-25T01:52:49.870Z,98540.78
2022-08-25T01:53:52.078Z,98542.31
2022-08-25T01:54:53.642Z,98546.94
2022-08-25T01:56:05.667Z,98543.09
2022-08-25T01:57:11.456Z,98547.16
2022-08-25T01:58:12.951Z,98546.63
2022-08-25T01:59:24.068Z,98546.00
2022-08-25T02:00:25.954Z,98544.44
2022-08-25T02:01:28.182Z,98547.88
2022-08-25T02:02:29.774Z,98550.22
2022-08-25T02:03:38.728Z,98552.13
2022-08-25T02:04:44.338Z,98555.22
2022-08-25T02:05:48.257Z,98556.00
2022-08-25T02:06:50.773Z,98549.63
2022-08-25T02:07:52.246Z,98551.19
2022-08-25T02:08:56.885Z,98551.22
2022-08-25T02:09:58.984Z,98553.91
2022-08-25T02:11:05.535Z,98558.66
2022-08-25T02:12:09.181Z,98555.25
2022-08-25T02:13:11.116Z,98556.19
2022-08-25T02:14:14.488Z,98557.84
2022-08-25T02:15:16.405Z,98559.78
2022-08-25T02:16:25.568Z,98560.16
2022-08-25T02:17:28.111Z,98562.38
2022-08-25T02:18:31.048Z,98561.19
2022-08-25T02:19:33.043Z,98557.03
2022-08-25T02:20:34.850Z,98552.44
2022-08-25T02:21:36.966Z,98560.13
2022-08-25T02:22:38.415Z,98544.47
2022-08-25T02:23:42.042Z,98547.84
2022-08-25T02:24:43.926Z,98551.34
2022-08-25T02:25:45.407Z,98540.69
2022-08-25T02:26:47.314Z,98548.69
2022-08-25T02:27:48.783Z,98544.47
2022-08-25T02:28:52.470Z,98544.47
2022-08-25T02:29:54.400Z,98554.47
2022-08-25T02:31:01.098Z,98550.91
2022-08-25T02:32:03.658Z,98552.09
2022-08-25T02:33:05.161Z,98545.25
2022-08-25T02:34:09.180Z,98544.69
2022-08-25T02:35:11.628Z,98547.63
2022-08-25T02:36:13.639Z,98542.59
2022-08-25T02:37:15.363Z,98539.94
2022-08-25T02:38:16.862Z,98539.25
2022-08-25T02:39:18.769Z,98540.44
2022-08-25T02:40:21.462Z,98530.88
2022-08-25T02:41:28.833Z,98532.84
2022-08-25T02:42:33.786Z,98534.41
2022-08-25T02:43:35.230Z,98522.66
2022-08-25T02:44:36.672Z,98525.78
2022-08-25T02:45:38.215Z,98529.28
2022-08-25T02:46:40.501Z,98527.41
2022-08-25T02:47:42.796Z,98517.13
2022-08-25T02:48:45.205Z,98526.28
2022-08-25T02:49:46.637Z,98527.41
2022-08-25T02:50:51.641Z,98528.94
2022-08-25T02:51:55.149Z,98524.38
2022-08-25T02:52:56.986Z,98525.88
2022-08-25T02:54:02.140Z,98528.78
2022-08-25T02:55:07.048Z,98526.50
2022-08-25T02:56:10.994Z,98530.16
2022-08-25T02:57:12.700Z,98531.25
2022-08-25T02:58:15.056Z,98524.88
2022-08-25T02:59:18.116Z,98527.69
2022-08-25T03:00:20.213Z,98531.53
2022-08-25T03:01:22.282Z,98523.34
2022-08-25T03:02:30.221Z,98529.56
2022-08-25T03:03:34.246Z,98532.69
2022-08-25T03:04:38.792Z,98524.69
2022-08-25T03:05:41.296Z,98526.56
2022-08-25T03:06:42.947Z,98524.31
2022-08-25T03:07:44.448Z,98519.75
2022-08-25T03:08:46.567Z,98529.28
2022-08-25T03:09:48.855Z,98530.56
2022-08-25T03:10:50.466Z,98521.19
2022-08-25T03:11:53.649Z,98523.13
2022-08-25T03:12:55.190Z,98523.13
2022-08-25T03:13:56.843Z,98523.50
2022-08-25T03:14:58.809Z,98523.50
2022-08-25T03:16:02.913Z,98516.22
2022-08-25T03:17:08.680Z,98521.88
2022-08-25T03:18:11.806Z,98518.44
2022-08-25T03:19:17.095Z,98520.78
2022-08-25T03:20:18.957Z,98522.56
2022-08-25T03:21:21.374Z,98524.78
2022-08-25T03:22:23.313Z,98528.28
2022-08-25T03:23:25.060Z,98518.75
2022-08-25T03:24:27.317Z,98524.41
2022-08-25T03:25:48.418Z,98520.66
2022-08-25T03:26:58.534Z,98521.00
2022-08-25T03:28:00.282Z,98518.63
2022-08-25T03:29:05.569Z,98525.53
2022-08-25T03:30:07.671Z,98518.72
2022-08-25T03:31:10.258Z,98513.47
2022-08-25T03:32:12.250Z,98524.22
2022-08-25T03:33:13.989Z,98522.75
2022-08-25T03:34:18.160Z,98523.53
2022-08-25T03:35:20.124Z,98527.34
2022-08-25T03:36:21.619Z,98522.47
2022-08-25T03:37:23.621Z,98519.09
2022-08-25T03:38:26.557Z,98533.53
2022-08-25T03:39:29.084Z,98527.84
2022-08-25T03:40:30.950Z,98530.50
2022-08-25T03:41:33.762Z,98527.84
2022-08-25T03:42:36.591Z,98525.16
2022-08-25T03:43:40.030Z,98525.09
2022-08-25T03:44:41.481Z,98526.69
2022-08-25T03:45:44.905Z,98534.38
2022-08-25T03:46:49.087Z,98525.97
2022-08-25T03:47:52.539Z,98532.06
2022-08-25T03:48:54.512Z,98530.53
2022-08-25T03:49:56.841Z,98529.97
2022-08-25T03:50:58.738Z,98525.78
2022-08-25T03:52:00.158Z,98524.28
2022-08-25T03:53:01.919Z,98530.41
2022-08-25T03:54:04.707Z,98521.34
2022-08-25T03:55:08.452Z,98523.34
2022-08-25T03:56:09.875Z,98524.09
2022-08-25T03:57:11.943Z,98518.78
2022-08-25T03:58:15.256Z,98517.94
2022-08-25T03:59:17.820Z,98524.75
2022-08-25T04:00:20.676Z,98523.19
2022-08-25T04:01:22.747Z,98519.50
2022-08-25T04:02:24.489Z,98522.50
2022-08-25T04:03:25.988Z,98517.97
2022-08-25T04:04:27.850Z,98517.25
2022-08-25T04:05:29.369Z,98508.47
2022-08-25T04:06:30.926Z,98514.09
2022-08-25T04:07:32.384Z,98513.66
2022-08-25T04:08:33.856Z,98510.69
2022-08-25T04:09:36.961Z,98504.63
2022-08-25T04:10:38.778Z,98510.38
2022-08-25T04:11:40.563Z,98507.78
2022-08-25T04:12:44.226Z,98507.81
2022-08-25T04:13:48.054Z,98505.63
2022-08-25T04:14:50.403Z,98502.19
2022-08-25T04:15:52.016Z,98495.31
2022-08-25T04:16:53.602Z,98498.41
2022-08-25T04:17:55.500Z,98497.97
2022-08-25T04:18:59.532Z,98499.41
2022-08-25T04:20:02.433Z,98493.75
2022-08-25T04:21:09.140Z,98496.84
2022-08-25T04:22:10.747Z,98497.56
2022-08-25T04:23:14.833Z,98500.16
2022-08-25T04:24:17.192Z,98501.00
2022-08-25T04:25:18.657Z,98507.84
2022-08-25T04:26:23.603Z,98503.22
2022-08-25T04:27:25.232Z,98506.31
2022-08-25T04:28:26.798Z,98500.91
2022-08-25T04:29:28.686Z,98513.44
2022-08-25T04:30:30.227Z,98505.09
2022-08-25T04:31:32.456Z,98500.19
2022-08-25T04:32:36.528Z,98510.78
2022-08-25T04:33:38.787Z,98508.88
2022-08-25T04:34:40.449Z,98503.19
2022-08-25T04:35:47.715Z,98508.56
2022-08-25T04:36:52.551Z,98504.84
2022-08-25T04:37:54.783Z,98505.66
2022-08-25T04:38:56.651Z,98509.31
2022-08-25T04:39:58.158Z,98513.53
2022-08-25T04:41:04.914Z,98510.84
2022-08-25T04:42:07.021Z,98513.03
2022-08-25T04:43:08.473Z,98511.22
2022-08-25T04:44:10.037Z,98515.47
2022-08-25T04:45:11.546Z,98518.13
2022-08-25T04:46:20.121Z,98521.56
2022-08-25T04:47:22.704Z,98511.22
2022-08-25T04:48:24.728Z,98518.06
2022-08-25T04:49:27.115Z,98514.66
2022-08-25T04:50:28.692Z,98510.03
2022-08-25T04:51:36.884Z,98517.59
2022-08-25T04:52:38.338Z,98514.63
2022-08-25T04:53:41.346Z,98520.69
2022-08-25T04:54:43.848Z,98523.38
2022-08-25T04:55:48.153Z,98511.53
2022-08-25T04:56:54.020Z,98522.53
2022-08-25T04:57:56.602Z,98519.13
2022-08-25T04:59:06.803Z,98524.84
2022-08-25T05:00:09.108Z,98519.88
2022-08-25T05:01:16.261Z,98518.78
2022-08-25T05:02:17.876Z,98522.22
2022-08-25T05:03:19.344Z,98531.78
2022-08-25T05:04:28.163Z,98529.84
2022-08-25T05:05:31.240Z,98528.34
2022-08-25T05:06:36.094Z,98527.94
2022-08-25T05:07:37.979Z,98525.22
2022-08-25T05:08:39.736Z,98533.59
2022-08-25T05:09:41.756Z,98532.06
2022-08-25T05:10:44.499Z,98529.72
2022-08-25T05:11:46.470Z,98531.91
2022-08-25T05:12:48.490Z,98532.28
2022-08-25T05:13:53.087Z,98537.19
2022-08-25T05:14:54.758Z,98531.84
2022-08-25T05:16:00.197Z,98536.34
2022-08-25T05:17:02.022Z,98529.06
2022-08-25T05:18:04.156Z,98523.13
2022-08-25T05:19:06.167Z,98521.31
2022-08-25T05:20:08.267Z,98516.41
2022-08-25T05:21:19.684Z,98519.81
2022-08-25T05:22:21.159Z,98512.16
2022-08-25T05:23:26.190Z,98510.50
2022-08-25T05:24:28.137Z,98508.16
2022-08-25T05:25:30.068Z,98512.22
2022-08-25T05:26:34.701Z,98507.25
2022-08-25T05:27:36.653Z,98515.53
2022-08-25T05:28:41.698Z,98511.34
2022-08-25T05:29:43.147Z,98502.59
2022-08-25T05:30:45.197Z,98509.16
2022-08-25T05:31:50.427Z,98509.16
2022-08-25T05:32:52.370Z,98511.88
2022-08-25T05:33:55.669Z,98506.59
2022-08-25T05:34:57.626Z,98506.22
2022-08-25T05:35:59.573Z,98508.16
2022-08-25T05:37:03.333Z,98506.56
2022-08-25T05:38:06.193Z,98510.38
2022-08-25T05:39:07.809Z,98506.56
2022-08-25T05:40:10.714Z,98513.00
2022-08-25T05:41:18.778Z,98504.97
2022-08-25T05:42:20.230Z,98508.78
2022-08-25T05:43:21.699Z,98501.19
2022-08-25T05:44:23.214Z,98511.06
2022-08-25T05:45:25.003Z,98509.50
2022-08-25T05:46:27.107Z,98518.63
2022-08-25T05:47:34.265Z,98516.28
2022-08-25T05:48:36.689Z,98515.19
2022-08-25T05:49:38.159Z,98513.25
2022-08-25T05:50:39.682Z,98511.69
2022-08-25T05:51:41.662Z,98514.72
2022-08-25T05:52:44.256Z,98507.81
2022-08-25T05:53:48.344Z,98502.47
2022-08-25T05:54:49.815Z,98510.44
2022-08-25T05:55:53.132Z,98512.66
2022-08-25T05:56:54.616Z,98503.88
2022-08-25T05:57:56.503Z,98506.53
2022-08-25T05:58:57.966Z,98503.91
2022-08-25T05:59:59.483Z,98506.91
2022-08-25T06:01:21.379Z,98509.56
2022-08-25T06:02:41.333Z,98504.94
2022-08-25T06:03:44.850Z,98506.78
2022-08-25T06:04:46.549Z,98509.06
2022-08-25T06:05:48.315Z,98510.16
2022-08-25T06:06:53.396Z,98507.91
2022-08-25T06:07:55.576Z,98506.31
2022-08-25T06:08:57.387Z,98502.06
2022-08-25T06:09:58.867Z,98510.38
2022-08-25T06:11:00.526Z,98502.31
2022-08-25T06:12:02.261Z,98506.44
2022-08-25T06:13:04.254Z,98512.09
2022-08-25T06:14:10.173Z,98509.78
2022-08-25T06:15:13.803Z,98506.31
2022-08-25T06:16:15.286Z,98508.13
2022-08-25T06:17:17.427Z,98502.34
2022-08-25T06:18:18.880Z,98504.19
2022-08-25T06:19:21.521Z,98504.09
2022-08-25T06:20:26.768Z,98509.00
2022-08-25T06:21:29.032Z,98504.34
2022-08-25T06:22:30.483Z,98498.56
2022-08-25T06:23:31.932Z,98504.56
2022-08-25T06:24:34.155Z,98512.47
2022-08-25T06:25:35.660Z,98512.38
2022-08-25T06:26:37.768Z,98512.66
2022-08-25T06:27:39.379Z,98511.81
2022-08-25T06:28:41.292Z,98507.50
2022-08-25T06:29:43.299Z,98516.91
2022-08-25T06:30:44.965Z,98505.00
2022-08-25T06:31:46.724Z,98508.28
2022-08-25T06:32:49.186Z,98510.47
2022-08-25T06:33:50.865Z,98506.22
2022-08-25T06:34:52.780Z,98508.00
2022-08-25T06:35:59.475Z,98508.28
2022-08-25T06:37:01.180Z,98497.09
2022-08-25T06:38:02.794Z,98504.25
2022-08-25T06:39:04.668Z,98506.44
2022-08-25T06:40:07.850Z,98503.69
2022-08-25T06:41:10.812Z,98496.56
2022-08-25T06:42:12.266Z,98503.91
2022-08-25T06:43:14.121Z,98500.03
2022-08-25T06:44:15.769Z,98499.44
2022-08-25T06:45:18.350Z,98499.59
2022-08-25T06:46:34.718Z,98498.41
2022-08-25T06:47:38.318Z,98496.88
2022-08-25T06:48:40.944Z,98501.09
2022-08-25T06:49:43.756Z,98495.06
2022-08-25T06:50:45.272Z,98504.66
2022-08-25T06:51:47.128Z,98497.78
2022-08-25T06:52:48.593Z,98498.28
2022-08-25T06:53:51.313Z,98496.13
2022-08-25T06:54:53.269Z,98495.88
2022-08-25T06:55:58.295Z,98495.16
2022-08-25T06:56:59.754Z,98499.22
2022-08-25T06:58:03.257Z,98500.22
2022-08-25T06:59:07.922Z,98496.38
2022-08-25T07:00:12.408Z,98496.50
2022-08-25T07:01:23.640Z,98488.53
2022-08-25T07:02:27.940Z,98494.66
2022-08-25T07:03:30.820Z,98490.03
2022-08-25T07:04:36.771Z,98483.84
2022-08-25T07:05:43.732Z,98487.25
2022-08-25T07:06:45.831Z,98494.22
2022-08-25T07:07:47.931Z,98484.34
2022-08-25T07:08:49.689Z,98489.34
2022-08-25T07:09:51.558Z,98484.50
2022-08-25T07:10:53.120Z,98483.22
2022-08-25T07:11:54.705Z,98480.91
2022-08-25T07:12:56.632Z,98481.72
2022-08-25T07:13:58.258Z,98487.53
2022-08-25T07:15:17.120Z,98486.94
2022-08-25T07:16:21.479Z,98486.00
2022-08-25T07:17:23.791Z,98488.78
2022-08-25T07:18:27.086Z,98490.28
2022-08-25T07:19:28.611Z,98485.25
2022-08-25T07:20:31.438Z,98482.72
2022-08-25T07:21:35.558Z,98486.91
2022-08-25T07:22:37.876Z,98480.56
2022-08-25T07:23:41.052Z,98476.69
2022-08-25T07:24:42.581Z,98475.66
2022-08-25T07:25:44.542Z,98483.84
2022-08-25T07:26:46.791Z,98476.84
2022-08-25T07:27:48.374Z,98479.00
2022-08-25T07:28:50.780Z,98475.78
2022-08-25T07:29:54.004Z,98478.03
2022-08-25T07:31:01.296Z,98462.25
2022-08-25T07:32:04.507Z,98468.56
2022-08-25T07:33:06.913Z,98471.81
2022-08-25T07:34:28.459Z,98475.78
2022-08-25T07:35:37.386Z,98475.47
2022-08-25T07:36:39.330Z,98476.41
2022-08-25T07:37:50.815Z,98479.47
2022-08-25T07:38:53.419Z,98480.56
2022-08-25T07:39:57.149Z,98485.03
2022-08-25T07:41:05.025Z,98473.94
2022-08-25T07:42:11.973Z,98480.34
2022-08-25T07:43:13.738Z,98475.94
2022-08-25T07:44:15.291Z,98478.50
2022-08-25T07:45:21.008Z,98468.16
2022-08-25T07:46:23.142Z,98477.69
2022-08-25T07:47:24.724Z,98476.94
2022-08-25T07:48:26.655Z,98477.94
2022-08-25T07:49:34.974Z,98478.50
2022-08-25T07:50:40.494Z,98486.69
2022-08-25T07:51:44.210Z,98489.38
2022-08-25T07:53:03.586Z,98492.75
2022-08-25T07:54:06.025Z,98489.06
2022-08-25T07:55:08.357Z,98483.06
2022-08-25T07:56:15.975Z,98485.53
2022-08-25T07:57:17.466Z,98486.75
2022-08-25T07:58:18.907Z,98482.22
2022-08-25T07:59:20.378Z,98487.25
2022-08-25T08:00:22.016Z,98484.53
2022-08-25T08:01:26.202Z,98486.66
2022-08-25T08:02:27.813Z,98487.66
2022-08-25T08:03:45.192Z,98484.03
2022-08-25T08:04:53.576Z,98489.28
2022-08-25T08:05:56.524Z,98488.19
2022-08-25T08:06:58.374Z,98487.03
2022-08-25T08:08:02.400Z,98487.84
2022-08-25T08:09:04.402Z,98487.88
2022-08-25T08:10:37.073Z,98491.78
2022-08-25T08:11:35.136Z,98488.13
2022-08-25T08:12:38.550Z,98487.56
2022-08-25T08:13:41.518Z,98491.66
2022-08-25T08:14:45.177Z,98489.25
2022-08-25T08:15:47.845Z,98488.78
2022-08-25T08:16:50.042Z,98488.03
2022-08-25T08:17:51.567Z,98489.84
2022-08-25T08:18:53.630Z,98485.94
2022-08-25T08:19:55.122Z,98485.47
2022-08-25T08:20:56.648Z,98478.91
2022-08-25T08:21:58.622Z,98482.19
2022-08-25T08:23:00.237Z,98482.47
2022-08-25T08:24:05.024Z,98478.13
2022-08-25T08:25:18.718Z,98477.53
2022-08-25T08:26:31.665Z,98477.69
2022-08-25T08:27:39.532Z,98471.38
2022-08-25T08:28:41.098Z,98471.03
2022-08-25T08:29:42.580Z,98468.78
2022-08-25T08:30:52.754Z,98476.41
2022-08-25T08:31:55.291Z,98474.69
2022-08-25T08:33:09.708Z,98469.44
2022-08-25T08:34:12.354Z,98476.31
2022-08-25T08:35:15.446Z,98471.25
2022-08-25T08:36:17.309Z,98474.19
2022-08-25T08:37:22.817Z,98465.72
2022-08-25T08:38:27.205Z,98470.38
2022-08-25T08:39:30.079Z,98475.63
2022-08-25T08:40:34.546Z,98471.06
2022-08-25T08:42:11.681Z,98474.53
2022-08-25T08:43:19.153Z,98468.78
2022-08-25T08:44:28.135Z,98471.56
2022-08-25T08:45:53.902Z,98466.78
2022-08-25T08:47:22.487Z,98469.03
2022-08-25T08:48:34.792Z,98472.44
2022-08-25T08:50:04.082Z,98465.06
2022-08-25T08:51:24.584Z,98465.81
2022-08-25T08:52:49.904Z,98457.16
2022-08-25T08:54:25.082Z,98455.59
2022-08-25T08:55:32.717Z,98455.06
2022-08-25T08:56:45.216Z,98451.34
2022-08-25T08:57:52.251Z,98450.13
2022-08-25T08:59:14.215Z,98452.28
2022-08-25T09:00:15.902Z,98455.50
2022-08-25T09:01:25.548Z,98448.00
2022-08-25T09:02:38.559Z,98456.25
2022-08-25T09:03:59.956Z,98450.16
2022-08-25T09:05:06.935Z,98452.28
2022-08-25T09:06:24.052Z,98458.59
2022-08-25T09:07:55.092Z,98454.69
2022-08-25T09:09:00.010Z,98457.78
2022-08-25T09:10:04.894Z,98453.75
2022-08-25T09:11:18.935Z,98452.59
2022-08-25T09:12:47.464Z,98456.44
2022-08-25T09:14:05.582Z,98457.53
2022-08-25T09:15:13.847Z,98449.44
2022-08-25T09:16:52.524Z,98450.75
2022-08-25T09:18:31.150Z,98451.34
2022-08-25T09:19:54.562Z,98453.84
2022-08-25T09:20:56.028Z,98456.09
2022-08-25T09:22:35.024Z,98451.88
2022-08-25T09:23:55.592Z,98459.72
2022-08-25T09:25:48.817Z,98453.00
2022-08-25T09:27:17.687Z,98455.97
2022-08-25T09:28:32.831Z,98451.53
2022-08-25T09:30:10.147Z,98454.63
2022-08-25T09:31:31.811Z,98453.81
2022-08-25T09:32:42.526Z,98450.06
2022-08-25T09:33:55.517Z,98457.00
2022-08-25T09:34:57.684Z,98449.53
2022-08-25T09:35:59.389Z,98450.91
2022-08-25T09:37:06.312Z,98455.66
2022-08-25T09:38:17.953Z,98454.03
2022-08-25T09:39:20.614Z,98447.78
2022-08-25T09:40:25.026Z,98438.19
2022-08-25T09:41:56.004Z,98441.97
2022-08-25T09:42:59.793Z,98433.41
2022-08-25T09:44:01.412Z,98435.06
2022-08-25T09:45:03.946Z,98435.22
2022-08-25T09:46:05.409Z,98436.09
2022-08-25T09:47:23.405Z,98443.59
2022-08-25T09:48:41.036Z,98435.31
2022-08-25T09:49:47.701Z,98438.69
2022-08-25T09:50:52.607Z,98438.94
2022-08-25T09:51:54.099Z,98435.56
2022-08-25T09:52:55.596Z,98436.00
2022-08-25T09:54:01.226Z,98429.41
2022-08-25T09:55:13.197Z,98429.69
2022-08-25T09:56:21.427Z,98425.97
2022-08-25T09:57:57.067Z,98427.34
2022-08-25T09:59:36.119Z,98418.72
2022-08-25T10:00:38.517Z,98419.47
2022-08-25T10:01:53.415Z,98417.81
2022-08-25T10:03:06.417Z,98417.06
2022-08-25T10:04:13.961Z,98418.13
2022-08-25T10:05:26.481Z,98413.31
2022-08-25T10:06:33.255Z,98411.03
2022-08-25T10:07:48.076Z,98416.75
2022-08-25T10:08:58.644Z,98410.16
2022-08-25T10:10:16.093Z,98409.41
2022-08-25T10:11:38.312Z,98407.28
2022-08-25T10:12:43.058Z,98409.78
2022-08-25T10:13:51.838Z,98407.50
2022-08-25T10:14:54.545Z,98401.97
2022-08-25T10:16:20.066Z,98398.69
2022-08-25T10:17:33.535Z,98395.97
2022-08-25T10:18:35.184Z,98397.91
2022-08-25T10:19:36.671Z,98395.66
2022-08-25T10:20:38.429Z,98399.16
2022-08-25T10:22:04.243Z,98390.75
2022-08-25T10:23:13.994Z,98392.47
2022-08-25T10:24:15.569Z,98393.03
2022-08-25T10:25:26.904Z,98393.47
2022-08-25T10:27:00.746Z,98388.41
2022-08-25T10:28:17.395Z,98381.50
2022-08-25T10:29:28.050Z,98379.09
2022-08-25T10:30:57.476Z,98383.28
2022-08-25T10:32:19.260Z,98379.38
2022-08-25T10:33:31.701Z,98381.19
2022-08-25T10:34:44.772Z,98376.28
2022-08-25T10:35:54.815Z,98378.50
2022-08-25T10:37:18.724Z,98374.91
2022-08-25T10:38:54.188Z,98372.06
2022-08-25T10:40:16.493Z,98370.53
2022-08-25T10:41:28.903Z,98367.22
2022-08-25T10:42:43.568Z,98358.28
2022-08-25T10:44:33.300Z,98362.50
2022-08-25T10:45:43.476Z,98351.38
2022-08-25T10:46:55.841Z,98355.88
2022-08-25T10:48:05.626Z,98358.25
2022-08-25T10:49:19.240Z,98351.53
2022-08-25T10:50:33.535Z,98351.69
2022-08-25T10:52:21.736Z,98346.88
2022-08-25T10:53:26.862Z,98341.91
2022-08-25T10:54:40.851Z,98347.81
2022-08-25T10:55:45.207Z,98341.97
2022-08-25T10:57:01.463Z,98344.94
2022-08-25T10:58:18.325Z,98343.59
2022-08-25T10:59:48.868Z,98343.13
2022-08-25T11:01:08.655Z,98341.22
2022-08-25T11:02:48.456Z,98332.16
2022-08-25T11:03:58.910Z,98332.94
2022-08-25T11:05:12.691Z,98336.66
2022-08-25T11:06:54.643Z,98339.09
2022-08-25T11:08:19.265Z,98335.91
2022-08-25T11:09:25.849Z,98333.78
2022-08-25T11:10:41.231Z,98336.19
2022-08-25T11:11:52.406Z,98335.75
2022-08-25T11:13:00.764Z,98330.19
2022-08-25T11:14:11.247Z,98330.63
2022-08-25T11:15:20.392Z,98326.16
2022-08-25T11:16:35.676Z,98337.75
2022-08-25T11:17:46.053Z,98329.72
2022-08-25T11:19:05.595Z,98330.22
2022-08-25T11:20:19.839Z,98337.19
2022-08-25T11:21:53.534Z,98335.59
2022-08-25T11:23:19.750Z,98331.91
2022-08-25T11:24:36.109Z,98339.19
2022-08-25T11:25:49.691Z,98327.22
2022-08-25T11:26:56.096Z,98336.94
2022-08-25T11:28:03.712Z,98322.63
2022-08-25T11:29:21.870Z,98322.00
2022-08-25T11:30:24.106Z,98318.53
2022-08-25T11:31:28.350Z,98331.44
2022-08-25T11:32:33.388Z,98318.84
2022-08-25T11:33:35.427Z,98316.78
2022-08-25T11:34:43.595Z,98328.44
2022-08-25T11:35:59.533Z,98321.94
2022-08-25T11:37:29.749Z,98322.66
2022-08-25T11:38:38.613Z,98315.34
2022-08-25T11:40:05.755Z,98325.75
2022-08-25T11:41:29.373Z,98325.13
2022-08-25T11:42:59.134Z,98330.22
2022-08-25T11:44:32.472Z,98326.72
2022-08-25T11:45:46.518Z,98325.22
2022-08-25T11:47:26.539Z,98326.63
2022-08-25T11:48:43.168Z,98333.34
2022-08-25T11:49:52.733Z,98327.13
2022-08-25T11:50:56.807Z,98325.06
2022-08-25T11:52:02.970Z,98330.41
2022-08-25T11:53:26.712Z,98322.19
2022-08-25T11:54:36.628Z,98322.25
2022-08-25T11:55:38.030Z,98324.78
2022-08-25T11:56:42.188Z,98321.94
2022-08-25T11:57:44.905Z,98326.22
2022-08-25T11:58:51.784Z,98324.59
2022-08-25T11:59:53.239Z,98318.41
2022-08-25T12:00:58.802Z,98325.41
2022-08-25T12:02:01.606Z,98326.72
2022-08-25T12:03:26.420Z,98317.22
2022-08-25T12:04:44.164Z,98322.34
2022-08-25T12:05:46.994Z,98317.53
2022-08-25T12:07:07.210Z,98320.56
2022-08-25T12:08:27.397Z,98316.09
2022-08-25T12:09:28.910Z,98320.09
2022-08-25T12:10:53.531Z,98322.09
2022-08-25T12:11:58.483Z,98324.00
2022-08-25T12:13:04.830Z,98319.13
2022-08-25T12:14:21.568Z,98324.00
2022-08-25T12:15:25.479Z,98321.22
2022-08-25T12:16:35.999Z,98320.34
2022-08-25T12:17:39.782Z,98320.69
2022-08-25T12:18:46.048Z,98323.69
2022-08-25T12:19:56.790Z,98321.00
2022-08-25T12:20:58.210Z,98318.88
2022-08-25T12:22:03.631Z,98319.13
2022-08-25T12:23:05.776Z,98312.91
2022-08-25T12:24:13.068Z,98315.91
2022-08-25T12:25:39.124Z,98321.56
2022-08-25T12:26:52.608Z,98308.53
2022-08-25T12:28:15.415Z,98305.94
2022-08-25T12:29:30.416Z,98307.75
2022-08-25T12:30:39.901Z,98300.72
2022-08-25T12:32:04.881Z,98302.03
2022-08-25T12:33:34.566Z,98301.47
2022-08-25T12:34:48.233Z,98290.75
2022-08-25T12:36:02.679Z,98305.94
2022-08-25T12:37:18.223Z,98298.44
2022-08-25T12:38:31.800Z,98289.13
2022-08-25T12:39:51.853Z,98288.47
2022-08-25T12:41:02.988Z,98281.84
2022-08-25T12:42:12.187Z,98282.00
2022-08-25T12:43:26.885Z,98286.31
2022-08-25T12:44:42.717Z,98284.72
2022-08-25T12:45:51.951Z,98288.47
2022-08-25T12:47:13.602Z,98286.53
2022-08-25T12:48:27.571Z,98290.66
2022-08-25T12:49:29.505Z,98287.03
2022-08-25T12:50:36.551Z,98286.44
2022-08-25T12:51:48.540Z,98284.72
2022-08-25T12:52:50.956Z,98284.19
2022-08-25T12:54:44.363Z,98281.41
2022-08-25T12:55:57.607Z,98283.38
2022-08-25T12:57:03.112Z,98281.59
2022-08-25T12:58:06.756Z,98283.25
2022-08-25T12:59:18.212Z,98281.16
2022-08-25T13:01:55.137Z,98277.66
2022-08-25T13:03:49.584Z,98275.94
2022-08-25T13:05:06.644Z,98274.53
2022-08-25T13:06:08.267Z,98276.50
2022-08-25T13:07:29.303Z,98283.38
2022-08-25T13:08:51.852Z,98275.88
2022-08-25T13:10:20.984Z,98281.69